Time;durP1;ratioP1;P1;durP2;ratioP2;P2;SDS_P1;SDS_P2;PMS_P1;PMS_P2;Temp;Humidity;BMP_temperature;BMP_pressure;BME280_temperature;BME280_humidity;BME280_pressure;Samples;Min_cycle;Max_cycle;Signal;HPM_P1;HPM_P2
2023/11/01 00:01:11;;;;;;;10.20;3.13;;;;;;;17.03;49.60;93524.09;4975634;28;20023;-78
2023/11/01 00:03:37;;;;;;;17.33;5.47;;;;;;;17.10;50.01;93543.03;4979405;28;20109;-77
2023/11/01 00:06:03;;;;;;;17.95;5.85;;;;;;;16.71;50.11;93522.81;4976634;28;20101;-77
2023/11/01 00:08:28;;;;;;;10.38;5.63;;;;;;;16.64;49.92;93511.94;4980154;28;20026;-78
2023/11/01 00:10:53;;;;;;;8.25;4.63;;;;;;;16.94;50.05;93574.63;4979902;28;20046;-78
2023/11/01 00:13:19;;;;;;;6.80;2.42;;;;;;;16.78;50.09;93552.44;4975921;28;20121;-78
2023/11/01 00:15:44;;;;;;;6.25;2.72;;;;;;;16.82;49.50;93584.75;4978229;28;20477;-78
2023/11/01 00:18:10;;;;;;;6.72;3.75;;;;;;;16.80;49.55;93582.44;4978128;28;20061;-78
2023/11/01 00:20:35;;;;;;;9.70;2.85;;;;;;;16.63;51.03;93577.50;4979786;28;20061;-78
2023/11/01 00:23:00;;;;;;;10.95;2.92;;;;;;;16.66;51.85;93571.44;4983478;28;20496;-77
2023/11/01 00:25:26;;;;;;;8.75;2.78;;;;;;;16.45;52.20;93549.56;4977678;28;20034;-79
2023/11/01 00:27:51;;;;;;;7.18;2.55;;;;;;;16.46;53.04;93564.53;4981527;28;20058;-77
2023/11/01 00:30:17;;;;;;;6.15;3.15;;;;;;;16.40;51.55;93582.84;4978565;28;20062;-79
2023/11/01 00:32:42;;;;;;;7.32;2.53;;;;;;;15.98;52.81;93553.25;4977214;28;20035;-78
2023/11/01 00:35:07;;;;;;;7.80;3.97;;;;;;;16.02;53.87;93538.00;4981097;28;20469;-78
2023/11/01 00:37:33;;;;;;;9.77;2.95;;;;;;;15.88;54.68;93543.09;4981162;28;20096;-77
2023/11/01 00:39:58;;;;;;;12.32;3.20;;;;;;;15.79;55.82;93566.66;4980023;28;20040;-77
2023/11/01 00:42:24;;;;;;;8.48;3.15;;;;;;;15.61;57.20;93533.31;4991708;28;20227;-77
2023/11/01 00:44:49;;;;;;;7.10;2.38;;;;;;;15.70;58.09;93531.97;4994687;28;20049;-77
2023/11/01 00:47:15;;;;;;;6.15;2.95;;;;;;;15.89;58.86;93561.47;4977565;28;20125;-77
2023/11/01 00:49:41;;;;;;;11.93;4.28;;;;;;;15.77;59.26;93550.13;4974032;28;20037;-77
2023/11/01 00:52:06;;;;;;;11.23;5.38;;;;;;;15.94;57.27;93591.84;4977849;28;20030;-78
2023/11/01 00:54:31;;;;;;;13.93;5.50;;;;;;;15.76;56.50;93583.41;4979199;28;20611;-78
2023/11/01 00:56:57;;;;;;;10.30;5.32;;;;;;;15.62;56.26;93561.66;4977464;28;20366;-77
2023/11/01 00:59:22;;;;;;;7.30;3.35;;;;;;;15.60;58.46;93580.00;4978652;28;20336;-77
2023/11/01 01:01:47;;;;;;;8.52;2.63;;;;;;;15.60;59.01;93582.69;4977004;28;20038;-78
2023/11/01 01:04:13;;;;;;;9.77;3.75;;;;;;;15.56;60.11;93568.41;4981419;28;20022;-77
2023/11/01 01:06:38;;;;;;;9.82;2.95;;;;;;;15.38;59.47;93527.81;4980062;28;20022;-77
2023/11/01 01:09:04;;;;;;;4.88;2.65;;;;;;;15.64;59.63;93551.38;4980416;28;20034;-78
2023/11/01 01:11:29;;;;;;;12.70;3.47;;;;;;;15.71;60.11;93576.44;4979375;28;20046;-78
2023/11/01 01:13:54;;;;;;;8.90;4.40;;;;;;;15.63;60.26;93565.91;4976389;28;20030;-78
2023/11/01 01:16:20;;;;;;;11.15;4.13;;;;;;;15.56;60.22;93574.56;4977248;28;20555;-78
2023/11/01 01:18:45;;;;;;;7.45;4.18;;;;;;;15.57;60.57;93586.06;4978760;28;20491;-78
2023/11/01 01:21:11;;;;;;;15.15;4.60;;;;;;;15.56;60.76;93590.66;4973125;28;20057;-78
2023/11/01 01:23:36;;;;;;;11.18;4.03;;;;;;;15.36;61.52;93560.31;4978724;28;20714;-78
2023/11/01 01:26:02;;;;;;;8.18;3.83;;;;;;;15.45;61.97;93574.31;4976081;28;20133;-77
2023/11/01 01:28:27;;;;;;;8.02;4.28;;;;;;;15.39;62.43;93575.72;4975245;28;20109;-77
2023/11/01 01:30:53;;;;;;;5.88;3.83;;;;;;;15.60;61.25;93580.00;4977743;28;20014;-79
2023/11/01 01:33:18;;;;;;;11.25;4.63;;;;;;;15.38;61.32;93555.38;4978673;28;20068;-77
2023/11/01 01:35:44;;;;;;;6.82;4.47;;;;;;;15.61;61.31;93592.28;4977349;28;20042;-77
2023/11/01 01:38:09;;;;;;;12.10;4.43;;;;;;;15.43;61.48;93573.09;4977966;28;20579;-78
2023/11/01 01:40:34;;;;;;;9.40;4.53;;;;;;;15.59;61.51;93589.19;4981381;28;20552;-79
2023/11/01 01:43:20;;;;;;;8.65;3.85;;;;;;;15.52;61.34;93580.97;4978606;28;20026;-77
2023/11/01 01:45:51;;;;;;;9.07;4.05;;;;;;;15.42;61.64;93569.63;4978879;28;20120;-78
2023/11/01 01:48:17;;;;;;;6.95;3.95;;;;;;;15.20;61.85;93566.84;4979016;28;20118;-77
2023/11/01 01:50:43;;;;;;;5.85;3.78;;;;;;;15.30;61.94;93572.41;4977936;28;20030;-76
2023/11/01 01:53:08;;;;;;;8.55;4.28;;;;;;;15.25;62.18;93569.25;4976852;28;20405;-76
2023/11/01 01:55:35;;;;;;;8.13;3.55;;;;;;;15.41;62.11;93594.88;4978183;28;20049;-78
2023/11/01 01:58:01;;;;;;;8.23;3.72;;;;;;;15.28;61.53;93585.41;4978674;28;20031;-77
2023/11/01 02:00:28;;;;;;;12.73;4.50;;;;;;;15.17;62.71;93594.28;4976776;28;20045;-77
2023/11/01 02:02:53;;;;;;;9.60;3.95;;;;;;;15.30;62.86;93614.53;4979153;28;20638;-77
2023/11/01 02:05:20;;;;;;;9.82;4.78;;;;;;;15.05;63.84;93597.84;4978661;28;20034;-77
2023/11/01 02:07:46;;;;;;;19.20;4.45;;;;;;;15.17;63.19;93595.06;4979571;28;20141;-77
2023/11/01 02:10:14;;;;;;;7.07;4.60;;;;;;;15.26;63.18;93584.19;4977801;28;20026;-77
2023/11/01 02:12:40;;;;;;;8.25;4.10;;;;;;;15.27;63.25;93577.69;4978204;28;20046;-76
2023/11/01 02:15:06;;;;;;;11.93;4.65;;;;;;;14.63;64.34;93516.47;4978947;28;20039;-78
2023/11/01 02:17:32;;;;;;;11.02;5.70;;;;;;;14.70;65.26;93560.28;4977225;28;20030;-78
2023/11/01 02:19:58;;;;;;;14.20;5.60;;;;;;;14.19;67.15;93556.59;4975907;28;20324;-77
2023/11/01 02:22:23;;;;;;;17.40;5.97;;;;;;;14.24;67.86;93585.00;4976037;28;20062;-77
2023/11/01 02:24:50;;;;;;;14.18;4.53;;;;;;;13.42;69.40;93555.94;4976419;28;20049;-77
2023/11/01 02:27:15;;;;;;;8.13;4.85;;;;;;;14.05;68.05;93585.63;4976844;28;20556;-77
2023/11/01 02:29:41;;;;;;;10.90;5.57;;;;;;;14.34;66.69;93590.63;4990660;28;20038;-77
2023/11/01 02:32:08;;;;;;;8.43;5.10;;;;;;;14.29;66.93;93585.53;4977826;28;20564;-77
2023/11/01 02:34:33;;;;;;;9.15;4.50;;;;;;;14.24;66.60;93585.78;4977966;28;20132;-77
2023/11/01 02:36:59;;;;;;;12.25;4.47;;;;;;;14.60;66.74;93625.78;4977186;28;20021;-76
2023/11/01 02:39:24;;;;;;;8.50;4.60;;;;;;;14.70;65.86;93629.88;4971808;28;20728;-78
2023/11/01 02:41:50;;;;;;;7.60;4.47;;;;;;;14.79;65.41;93635.06;4978416;28;20536;-77
2023/11/01 02:44:15;;;;;;;8.77;4.65;;;;;;;14.91;64.94;93629.66;4975607;28;20112;-77
2023/11/01 02:46:40;;;;;;;8.27;3.83;;;;;;;15.01;64.67;93632.56;4975683;28;20077;-77
2023/11/01 02:49:06;;;;;;;9.60;5.20;;;;;;;15.03;64.50;93633.00;4974223;28;20088;-76
2023/11/01 02:51:31;;;;;;;9.57;4.40;;;;;;;14.84;64.42;93613.38;4979115;28;20049;-77
2023/11/01 02:53:57;;;;;;;9.35;5.68;;;;;;;15.08;64.02;93629.28;4979801;28;20563;-77
2023/11/01 02:56:22;;;;;;;8.90;4.18;;;;;;;15.08;63.91;93637.34;4977848;28;20034;-77
2023/11/01 02:58:48;;;;;;;14.80;5.97;;;;;;;15.12;63.87;93632.06;4992420;28;20030;-77
2023/11/01 03:01:14;;;;;;;12.88;5.03;;;;;;;14.99;63.66;93604.59;4978935;28;20027;-77
2023/11/01 03:03:40;;;;;;;8.98;5.95;;;;;;;15.21;63.12;93625.41;4978912;28;20548;-77
2023/11/01 03:06:05;;;;;;;10.02;5.93;;;;;;;15.25;63.12;93633.53;4977257;28;20081;-77
2023/11/01 03:08:31;;;;;;;13.80;5.85;;;;;;;15.19;63.13;93625.00;4979816;28;20034;-78
2023/11/01 03:10:56;;;;;;;10.15;5.78;;;;;;;15.01;63.11;93603.09;4975773;28;20041;-77
2023/11/01 03:13:22;;;;;;;12.10;6.32;;;;;;;15.02;63.24;93602.00;4976326;28;20510;-77
2023/11/01 03:15:47;;;;;;;12.23;7.90;;;;;;;15.04;63.92;93617.72;4976961;28;20415;-78
2023/11/01 03:18:12;;;;;;;16.25;8.00;;;;;;;15.20;63.72;93636.47;4978283;28;20121;-77
2023/11/01 03:20:38;;;;;;;11.40;6.97;;;;;;;15.06;63.68;93626.16;4979446;28;20950;-77
2023/11/01 03:23:04;;;;;;;9.55;7.13;;;;;;;15.05;64.57;93651.41;4981111;28;20558;-77
2023/11/01 03:25:29;;;;;;;8.65;6.97;;;;;;;15.04;64.38;93634.56;4980916;28;20040;-77
2023/11/01 03:27:55;;;;;;;10.82;7.57;;;;;;;14.98;64.87;93627.91;4979635;28;20037;-77
2023/11/01 03:30:22;;;;;;;8.25;6.78;;;;;;;14.94;64.34;93615.56;4981072;28;20038;-77
2023/11/01 03:32:48;;;;;;;12.95;8.00;;;;;;;14.92;64.44;93620.47;4980968;28;20058;-77
2023/11/01 03:35:14;;;;;;;10.15;7.15;;;;;;;15.16;64.25;93640.94;4980708;28;20037;-77
2023/11/01 03:37:40;;;;;;;10.18;7.38;;;;;;;15.00;63.28;93606.16;4979206;28;20039;-77
2023/11/01 03:40:08;;;;;;;12.38;7.72;;;;;;;15.13;62.73;93631.72;4981627;28;20970;-78
2023/11/01 03:42:33;;;;;;;9.68;6.53;;;;;;;15.19;62.37;93624.22;4981567;28;20157;-76
2023/11/01 03:44:59;;;;;;;7.90;7.07;;;;;;;15.07;62.27;93621.59;4980955;28;20568;-77
2023/11/01 03:47:24;;;;;;;10.43;7.57;;;;;;;14.94;61.94;93618.22;4981908;28;20072;-77
2023/11/01 03:49:49;;;;;;;9.95;6.25;;;;;;;14.86;62.20;93611.16;4981048;28;20548;-78
2023/11/01 03:52:15;;;;;;;8.05;6.43;;;;;;;14.84;61.42;93589.28;4981191;28;20034;-77
2023/11/01 03:54:40;;;;;;;13.52;6.10;;;;;;;14.88;61.83;93617.72;4978488;28;20030;-78
2023/11/01 03:57:06;;;;;;;7.25;5.97;;;;;;;14.78;61.81;93609.41;4998379;28;20489;-78
2023/11/01 03:59:32;;;;;;;9.10;7.35;;;;;;;14.73;62.07;93606.97;4979114;28;20037;-77
2023/11/01 04:01:57;;;;;;;9.57;5.25;;;;;;;14.86;61.52;93636.00;4981675;28;20042;-77
2023/11/01 04:04:23;;;;;;;10.32;6.25;;;;;;;14.77;60.99;93637.28;4979917;28;20609;-77
2023/11/01 04:06:48;;;;;;;8.20;5.80;;;;;;;14.64;60.61;93625.09;4981359;28;20030;-78
2023/11/01 04:09:13;;;;;;;8.27;6.05;;;;;;;14.52;60.79;93618.63;4982457;28;20031;-77
2023/11/01 04:11:39;;;;;;;11.68;5.93;;;;;;;14.58;60.54;93632.59;4980624;28;20042;-77
2023/11/01 04:14:06;;;;;;;7.15;5.38;;;;;;;14.52;60.73;93624.00;4979354;28;20034;-77
2023/11/01 04:16:31;;;;;;;9.07;6.07;;;;;;;14.59;61.14;93642.97;4978983;28;20092;-77
2023/11/01 04:18:57;;;;;;;9.20;5.32;;;;;;;14.42;60.81;93635.19;4980590;28;20311;-77
2023/11/01 04:21:22;;;;;;;8.27;5.38;;;;;;;14.46;60.75;93656.72;4978840;28;20053;-77
2023/11/01 04:23:49;;;;;;;10.95;6.45;;;;;;;14.21;60.42;93639.97;4978981;28;20228;-77
2023/11/01 04:26:15;;;;;;;7.90;5.32;;;;;;;14.18;60.40;93624.56;4980730;28;20057;-77
2023/11/01 04:28:40;;;;;;;7.70;5.00;;;;;;;14.00;61.04;93604.59;4978508;28;20038;-79
2023/11/01 04:31:06;;;;;;;8.63;4.65;;;;;;;14.16;61.48;93632.19;4982649;28;20499;-79
2023/11/01 04:33:31;;;;;;;8.38;4.63;;;;;;;14.24;61.43;93644.63;4979767;28;20025;-77
2023/11/01 04:35:57;;;;;;;8.52;3.20;;;;;;;14.06;61.50;93632.66;4979379;28;20038;-77
2023/11/01 04:38:23;;;;;;;6.18;3.78;;;;;;;13.84;61.27;93604.50;4981551;28;20038;-76
2023/11/01 04:40:51;;;;;;;7.72;3.80;;;;;;;14.14;61.23;93647.78;4982239;28;20096;-77
2023/11/01 04:43:19;;;;;;;6.10;3.92;;;;;;;14.11;61.02;93657.28;4982191;28;20101;-76
2023/11/01 04:45:45;;;;;;;6.80;3.78;;;;;;;14.06;60.85;93662.06;4985380;28;20061;-77
2023/11/01 04:48:11;;;;;;;6.60;3.75;;;;;;;13.83;61.27;93634.28;4980565;28;20038;-77
2023/11/01 04:50:36;;;;;;;7.22;3.65;;;;;;;13.78;60.40;93637.97;4982949;28;20375;-77
2023/11/01 04:53:02;;;;;;;4.40;2.80;;;;;;;13.85;60.65;93658.75;4980124;28;20120;-78
2023/11/01 04:55:27;;;;;;;6.88;3.58;;;;;;;13.84;61.53;93662.56;4979995;28;20061;-77
2023/11/01 04:57:52;;;;;;;7.20;3.55;;;;;;;13.86;61.37;93655.75;4977752;28;20065;-76
2023/11/01 05:00:18;;;;;;;9.27;3.47;;;;;;;13.90;61.34;93666.53;4980711;28;20030;-76
2023/11/01 05:02:47;;;;;;;15.07;4.45;;;;;;;13.90;60.81;93666.53;4979109;28;20034;-76
2023/11/01 05:05:14;;;;;;;6.47;3.47;;;;;;;13.81;60.83;93664.00;4980878;28;20030;-76
2023/11/01 05:07:39;;;;;;;6.72;3.85;;;;;;;13.73;61.50;93656.91;4978758;28;20041;-78
2023/11/01 05:10:05;;;;;;;9.32;3.22;;;;;;;13.67;62.25;93669.69;4981045;28;20022;-78
2023/11/01 05:12:31;;;;;;;6.53;3.25;;;;;;;13.63;62.34;93668.81;4979364;28;20600;-78
2023/11/01 05:14:57;;;;;;;8.40;3.85;;;;;;;13.68;61.79;93681.97;4981651;28;20030;-78
2023/11/01 05:17:22;;;;;;;5.70;3.33;;;;;;;13.50;61.96;93675.22;4978457;28;20038;-77
2023/11/01 05:19:48;;;;;;;7.13;3.38;;;;;;;13.50;61.82;93674.44;4977621;28;20155;-78
2023/11/01 05:22:13;;;;;;;8.55;3.65;;;;;;;13.48;62.17;93688.16;4977520;28;20058;-78
2023/11/01 05:24:39;;;;;;;7.75;3.10;;;;;;;13.58;62.91;93697.63;4977405;28;20081;-78
2023/11/01 05:27:07;;;;;;;7.45;3.78;;;;;;;13.45;63.43;93680.78;4978383;28;20038;-78
2023/11/01 05:29:32;;;;;;;7.07;3.63;;;;;;;13.55;63.37;93688.38;4979292;28;20560;-78
2023/11/01 05:31:57;;;;;;;6.00;3.47;;;;;;;13.57;63.16;93696.84;4978232;28;20033;-78
2023/11/01 05:34:23;;;;;;;5.25;3.17;;;;;;;13.59;63.35;93691.97;4980967;28;20085;-78
2023/11/01 05:36:50;;;;;;;7.97;3.53;;;;;;;13.75;62.54;93708.88;4981413;28;20022;-78
2023/11/01 05:39:15;;;;;;;5.45;2.88;;;;;;;13.69;63.18;93694.19;4978701;28;20047;-78
2023/11/01 05:41:41;;;;;;;10.75;3.67;;;;;;;13.52;62.92;93680.25;4979809;28;20864;-78
2023/11/01 05:44:06;;;;;;;5.78;3.25;;;;;;;13.59;63.24;93699.97;4978340;28;20049;-77
2023/11/01 05:46:31;;;;;;;6.43;3.60;;;;;;;13.77;62.99;93721.16;4975435;28;20045;-76
2023/11/01 05:48:57;;;;;;;8.82;3.70;;;;;;;13.61;63.39;93703.09;4977596;28;20375;-76
2023/11/01 05:51:22;;;;;;;5.78;3.90;;;;;;;13.59;63.60;93708.00;4975962;28;20038;-76
2023/11/01 05:53:47;;;;;;;6.90;4.68;;;;;;;13.82;63.56;93735.06;4977400;28;21523;-77
2023/11/01 05:56:15;;;;;;;8.65;4.15;;;;;;;13.75;63.66;93719.56;4975341;28;20061;-76
2023/11/01 05:58:40;;;;;;;8.60;3.88;;;;;;;13.95;63.51;93727.81;4977418;28;20038;-77
2023/11/01 06:01:08;;;;;;;7.57;3.63;;;;;;;13.74;63.52;93704.66;4979010;28;20740;-77
2023/11/01 06:03:33;;;;;;;7.15;3.70;;;;;;;13.93;63.84;93724.72;4975840;28;20038;-77
2023/11/01 06:05:59;;;;;;;10.02;4.35;;;;;;;13.90;63.84;93720.00;4978240;28;20034;-76
2023/11/01 06:08:24;;;;;;;8.32;4.53;;;;;;;13.91;64.19;93710.88;4975941;28;20049;-77
2023/11/01 06:10:50;;;;;;;5.53;3.50;;;;;;;13.83;64.60;93714.47;4978948;28;20044;-79
2023/11/01 06:13:15;;;;;;;9.20;4.18;;;;;;;13.81;64.34;93703.31;4978146;28;20116;-76
2023/11/01 06:15:41;;;;;;;8.10;4.63;;;;;;;14.04;64.59;93728.47;4971433;28;20076;-77
2023/11/01 06:18:06;;;;;;;8.68;5.05;;;;;;;14.14;64.58;93725.34;4968714;28;20078;-79
2023/11/01 06:20:33;;;;;;;9.50;4.05;;;;;;;14.29;64.05;93742.56;4965391;28;20034;-79
2023/11/01 06:22:58;;;;;;;5.32;3.92;;;;;;;14.27;64.25;93740.25;4967859;28;20128;-77
2023/11/01 06:25:24;;;;;;;8.10;4.20;;;;;;;14.44;64.66;93748.00;4966620;28;20096;-78
2023/11/01 06:27:49;;;;;;;8.57;5.28;;;;;;;14.28;64.79;93708.91;4968340;28;20069;-79
2023/11/01 06:30:16;;;;;;;9.15;4.78;;;;;;;14.42;64.34;93728.06;4984185;28;20615;-79
2023/11/01 06:32:41;;;;;;;8.77;4.50;;;;;;;14.44;64.47;93717.81;4971385;28;20034;-77
2023/11/01 06:35:07;;;;;;;8.80;5.05;;;;;;;14.64;64.59;93737.50;4968718;28;20058;-77
2023/11/01 06:37:33;;;;;;;6.38;4.22;;;;;;;14.56;64.32;93721.25;4970926;28;20080;-78
2023/11/01 06:39:58;;;;;;;10.85;6.22;;;;;;;14.78;64.83;93753.97;4970418;28;20160;-76
2023/11/01 06:42:23;;;;;;;11.07;5.15;;;;;;;14.59;65.43;93725.94;4968542;28;20030;-78
2023/11/01 06:44:49;;;;;;;7.72;4.93;;;;;;;13.65;65.51;93567.69;4967463;28;20137;-76
2023/11/01 06:47:14;;;;;;;9.65;5.30;;;;;;;14.87;65.36;93752.69;4969996;28;20046;-77
2023/11/01 06:49:39;;;;;;;10.82;5.60;;;;;;;14.83;65.43;93738.44;4968215;28;20038;-76
2023/11/01 06:52:06;;;;;;;9.98;6.30;;;;;;;14.73;65.81;93759.56;4964258;28;20080;-77
2023/11/01 06:54:31;;;;;;;8.70;6.43;;;;;;;14.79;65.78;93771.59;4970706;28;20104;-78
2023/11/01 06:56:57;;;;;;;8.00;5.30;;;;;;;14.66;65.34;93762.03;4972674;28;20034;-78
2023/11/01 06:59:22;;;;;;;10.43;7.03;;;;;;;14.45;65.76;93746.91;4969839;28;20460;-79
2023/11/01 07:01:48;;;;;;;8.23;5.65;;;;;;;14.62;65.35;93745.13;4968474;28;20794;-79
2023/11/01 07:04:13;;;;;;;12.57;6.32;;;;;;;14.68;65.08;93738.38;4970615;28;20029;-77
2023/11/01 07:06:38;;;;;;;10.13;5.65;;;;;;;14.72;64.31;93744.59;4970290;28;20024;-77
2023/11/01 07:09:07;;;;;;;9.48;6.60;;;;;;;14.85;64.85;93775.59;4975004;28;20144;-77
2023/11/01 07:11:33;;;;;;;10.57;7.18;;;;;;;14.95;64.65;93764.41;4972155;28;20212;-79
2023/11/01 07:13:58;;;;;;;11.50;6.72;;;;;;;14.97;65.29;93772.84;4971217;28;20040;-77
2023/11/01 07:16:24;;;;;;;12.80;7.32;;;;;;;14.81;65.39;93755.97;4974120;28;20264;-78
2023/11/01 07:18:50;;;;;;;9.43;6.68;;;;;;;14.98;65.42;93761.03;4970432;28;20408;-78
2023/11/01 07:21:16;;;;;;;14.80;7.40;;;;;;;15.07;64.88;93779.63;4972134;28;20035;-77
2023/11/01 07:23:41;;;;;;;9.55;6.68;;;;;;;15.24;65.22;93788.16;4971107;28;20437;-78
2023/11/01 07:26:06;;;;;;;11.77;7.05;;;;;;;15.11;65.16;93757.16;4972343;28;20518;-78
2023/11/01 07:28:32;;;;;;;10.02;7.65;;;;;;;15.23;64.13;93786.59;4971344;28;20034;-78
2023/11/01 07:30:57;;;;;;;10.27;7.90;;;;;;;15.22;63.72;93771.63;4973767;28;20019;-77
2023/11/01 07:33:22;;;;;;;19.00;7.85;;;;;;;15.37;64.71;93797.69;4972836;28;20045;-78
2023/11/01 07:35:48;;;;;;;10.02;6.50;;;;;;;15.25;64.48;93788.94;4972491;28;20042;-77
2023/11/01 07:38:13;;;;;;;10.13;7.85;;;;;;;15.31;65.07;93793.69;4971296;28;20230;-78
2023/11/01 07:40:39;;;;;;;18.48;8.38;;;;;;;14.87;66.26;93784.81;4971544;28;20049;-78
2023/11/01 07:43:04;;;;;;;11.60;7.07;;;;;;;14.98;65.66;93795.84;4974148;28;20084;-78
2023/11/01 07:45:30;;;;;;;14.38;8.40;;;;;;;14.91;65.82;93807.13;4974265;28;20092;-77
2023/11/01 07:47:56;;;;;;;10.43;7.10;;;;;;;14.91;65.99;93791.06;4969999;28;20041;-79
2023/11/01 07:50:22;;;;;;;14.18;8.18;;;;;;;15.30;66.08;93815.47;4972742;28;20085;-79
2023/11/01 07:52:47;;;;;;;12.88;8.20;;;;;;;14.98;66.33;93796.63;4972297;28;20046;-78
2023/11/01 07:55:12;;;;;;;11.88;8.23;;;;;;;15.12;65.84;93823.00;4971148;28;20208;-78
2023/11/01 07:57:38;;;;;;;13.73;7.55;;;;;;;15.06;64.51;93783.44;4971071;28;20059;-78
2023/11/01 08:00:05;;;;;;;9.60;7.18;;;;;;;15.24;65.39;93812.25;4954352;28;20043;-78
2023/11/01 08:02:31;;;;;;;12.75;7.45;;;;;;;15.36;65.38;93824.81;4964987;28;20069;-78
2023/11/01 08:04:56;;;;;;;11.73;6.72;;;;;;;15.36;65.06;93828.28;4971560;28;20573;-78
2023/11/01 08:07:21;;;;;;;10.45;7.10;;;;;;;15.52;64.79;93830.25;4974625;28;20620;-78
2023/11/01 08:09:47;;;;;;;9.90;6.85;;;;;;;15.57;64.90;93838.03;4970384;28;20026;-79
2023/11/01 08:12:13;;;;;;;14.38;7.28;;;;;;;15.51;64.62;93836.72;4977305;28;20042;-76
2023/11/01 08:14:39;;;;;;;12.10;6.82;;;;;;;15.43;64.49;93822.31;4971463;28;20681;-77
2023/11/01 08:17:04;;;;;;;11.95;7.47;;;;;;;15.48;64.99;93834.72;4961895;28;20043;-77
2023/11/01 08:19:29;;;;;;;12.85;7.88;;;;;;;15.57;64.30;93830.78;4961995;28;20053;-79
2023/11/01 08:21:55;;;;;;;10.15;7.15;;;;;;;15.56;64.56;93837.25;4962821;28;20015;-78
2023/11/01 08:24:20;;;;;;;13.57;7.85;;;;;;;15.48;64.99;93837.41;4963212;28;20693;-77
2023/11/01 08:26:45;;;;;;;12.73;7.53;;;;;;;15.34;63.36;93819.81;4959877;28;20042;-78
2023/11/01 08:29:11;;;;;;;12.32;7.10;;;;;;;15.57;64.01;93841.50;4966179;28;20042;-77
2023/11/01 08:31:36;;;;;;;21.60;7.82;;;;;;;15.56;63.28;93852.53;4965712;28;20106;-78
2023/11/01 08:34:02;;;;;;;14.20;7.32;;;;;;;15.64;62.94;93841.69;4961303;28;20026;-78
2023/11/01 08:36:27;;;;;;;14.90;8.32;;;;;;;15.60;63.50;93821.25;4962854;28;20211;-79
2023/11/01 08:38:53;;;;;;;11.05;7.55;;;;;;;15.76;63.67;93852.34;4962146;28;21088;-77
2023/11/01 08:41:19;;;;;;;13.20;8.20;;;;;;;15.44;64.46;93859.53;4957640;28;20689;-79
2023/11/01 08:43:44;;;;;;;13.50;8.75;;;;;;;15.38;65.25;93876.94;4956865;28;20201;-79
2023/11/01 08:46:15;;;;;;;17.25;8.70;;;;;;;15.34;64.79;93857.31;4965564;28;20112;-77
2023/11/01 08:48:40;;;;;;;16.17;8.88;;;;;;;14.54;67.54;93877.91;4968216;28;20053;-77
2023/11/01 08:51:07;;;;;;;14.43;8.55;;;;;;;14.53;68.88;93887.84;4972961;28;20201;-79
2023/11/01 08:53:33;;;;;;;9.18;6.57;;;;;;;14.38;67.77;93869.75;4968254;28;20113;-77
2023/11/01 08:55:59;;;;;;;15.00;6.63;;;;;;;14.19;68.38;93856.16;4970628;28;20493;-78
2023/11/01 08:58:25;;;;;;;4.90;4.18;;;;;;;14.57;67.51;93894.09;4968977;28;20058;-78
2023/11/01 09:00:50;;;;;;;6.60;3.90;;;;;;;14.45;67.48;93867.31;4967232;28;20326;-79
2023/11/01 09:03:16;;;;;;;9.98;4.72;;;;;;;14.13;68.66;93868.22;4969419;28;20038;-77
2023/11/01 09:05:42;;;;;;;8.90;3.78;;;;;;;14.47;67.46;93891.81;4971710;28;20074;-79
2023/11/01 09:08:07;;;;;;;7.18;4.25;;;;;;;14.38;67.18;93869.75;4968755;28;20117;-77
2023/11/01 09:10:33;;;;;;;9.68;3.58;;;;;;;14.49;66.57;93880.78;4969762;28;20056;-77
2023/11/01 09:12:58;;;;;;;9.93;3.35;;;;;;;14.52;65.15;93886.25;4969423;28;20036;-77
2023/11/01 09:15:24;;;;;;;4.10;2.88;;;;;;;14.60;65.42;93881.94;4965118;28;20484;-77
2023/11/01 09:17:50;;;;;;;2.97;2.65;;;;;;;14.48;64.25;93855.16;4970284;28;20061;-78
2023/11/01 09:20:15;;;;;;;8.25;3.78;;;;;;;14.72;63.96;93873.88;4971607;28;20042;-77
2023/11/01 09:22:40;;;;;;;5.20;3.05;;;;;;;14.72;63.48;93899.88;4972149;28;20039;-77
2023/11/01 09:25:06;;;;;;;5.22;3.75;;;;;;;14.72;63.79;93892.63;4964886;28;20636;-77
2023/11/01 09:27:32;;;;;;;4.75;3.28;;;;;;;14.20;64.59;93852.38;4968982;28;20032;-76
2023/11/01 09:29:57;;;;;;;7.60;3.30;;;;;;;14.31;63.77;93885.59;4971990;28;20691;-79
2023/11/01 09:32:22;;;;;;;4.63;3.55;;;;;;;14.16;64.94;93888.94;4971505;28;20033;-76
2023/11/01 09:34:48;;;;;;;6.53;5.05;;;;;;;14.30;65.32;93897.41;4965976;28;20873;-77
2023/11/01 09:37:13;;;;;;;9.40;6.50;;;;;;;14.08;65.54;93876.47;4969281;28;20030;-77
2023/11/01 09:39:39;;;;;;;9.20;7.13;;;;;;;13.81;66.74;93864.47;4970469;28;20505;-77
2023/11/01 09:42:11;;;;;;;13.00;8.45;;;;;;;13.49;67.85;93868.72;4970036;28;20285;-77
2023/11/01 09:44:36;;;;;;;12.30;8.43;;;;;;;13.43;67.54;93867.38;4983726;28;20509;-78
2023/11/01 09:47:02;;;;;;;14.07;10.07;;;;;;;13.20;67.65;93839.47;4968814;28;20089;-78
2023/11/01 09:49:30;;;;;;;11.63;10.38;;;;;;;13.47;67.77;93892.31;4968668;28;20513;-76
2023/11/01 09:52:02;;;;;;;12.88;9.77;;;;;;;13.24;67.98;93881.22;4969317;28;20027;-76
2023/11/01 09:54:28;;;;;;;14.50;9.90;;;;;;;13.31;67.22;93869.97;4982878;28;20513;-77
2023/11/01 09:56:55;;;;;;;10.60;9.50;;;;;;;13.22;68.77;93894.09;4968038;28;20452;-76
2023/11/01 09:59:22;;;;;;;11.38;9.52;;;;;;;13.10;68.46;93866.56;4970854;28;20046;-77
2023/11/01 10:01:48;;;;;;;12.75;9.70;;;;;;;13.50;67.68;93867.59;4962970;28;20046;-77
2023/11/01 10:04:13;;;;;;;13.48;9.45;;;;;;;13.69;67.00;93880.50;4967611;28;20124;-78
2023/11/01 10:06:39;;;;;;;12.93;9.55;;;;;;;13.36;67.47;93850.28;4958105;28;20154;-77
2023/11/01 10:09:06;;;;;;;14.05;9.68;;;;;;;13.64;67.78;93884.16;4965764;28;20049;-76
2023/11/01 10:11:31;;;;;;;13.20;9.70;;;;;;;13.70;66.03;93872.13;4974955;28;20497;-79
2023/11/01 10:13:57;;;;;;;15.70;8.85;;;;;;;13.57;66.55;93867.84;4970524;28;20393;-79
2023/11/01 10:16:22;;;;;;;15.77;9.68;;;;;;;13.77;66.63;93870.81;4966202;28;20035;-79
2023/11/01 10:18:48;;;;;;;13.60;9.65;;;;;;;13.75;66.50;93874.59;4989038;28;20063;-78
2023/11/01 10:21:14;;;;;;;10.50;9.23;;;;;;;13.82;65.77;93843.88;4973990;28;20464;-78
2023/11/01 10:23:39;;;;;;;14.05;8.65;;;;;;;13.96;64.70;93841.66;4973497;28;20157;-78
2023/11/01 10:26:05;;;;;;;12.65;8.63;;;;;;;13.38;64.83;93766.06;4972879;28;20093;-78
2023/11/01 10:28:39;;;;;;;11.02;8.20;;;;;;;14.13;64.76;93873.56;4976314;28;20039;-79
2023/11/01 10:31:05;;;;;;;10.33;8.13;;;;;;;14.23;64.46;93872.34;4976577;28;20018;-78
2023/11/01 10:33:33;;;;;;;11.88;7.85;;;;;;;14.31;63.96;93860.75;4976364;28;20022;-77
2023/11/01 10:35:59;;;;;;;10.02;7.57;;;;;;;14.52;62.49;93858.72;4956644;28;20038;-78
2023/11/01 10:38:26;;;;;;;12.05;8.93;;;;;;;14.62;63.74;93866.31;4976141;28;20038;-78
2023/11/01 10:40:52;;;;;;;11.55;8.85;;;;;;;14.67;63.72;93868.75;4975926;28;20292;-78
2023/11/01 10:43:19;;;;;;;8.80;7.93;;;;;;;14.77;61.71;93864.84;4979460;28;20030;-78
2023/11/01 10:45:48;;;;;;;9.68;6.72;;;;;;;14.70;61.03;93835.19;4974406;28;20374;-79
2023/11/01 10:48:15;;;;;;;11.85;7.38;;;;;;;14.93;60.11;93852.31;4993553;28;20640;-79
2023/11/01 10:50:43;;;;;;;8.40;7.13;;;;;;;14.85;59.58;93835.28;4987896;28;20045;-78
2023/11/01 10:53:11;;;;;;;9.18;6.85;;;;;;;14.91;60.01;93843.84;4990874;28;20030;-78
2023/11/01 10:55:37;;;;;;;9.60;7.72;;;;;;;14.77;60.29;93830.81;4974310;28;20030;-77
2023/11/01 10:58:05;;;;;;;7.05;6.35;;;;;;;14.69;59.52;93828.28;4976452;28;20048;-79
2023/11/01 11:00:48;;;;;;;8.23;7.43;;;;;;;14.68;60.38;93848.91;4976317;28;20045;-80
2023/11/01 11:03:24;;;;;;;9.52;7.78;;;;;;;14.47;61.04;93798.16;4967724;28;20391;-79
2023/11/01 11:05:51;;;;;;;10.30;7.03;;;;;;;14.81;61.57;93825.59;4966095;28;20042;-78
2023/11/01 11:08:16;;;;;;;8.07;5.97;;;;;;;14.86;57.64;93830.69;4967668;28;20042;-78
2023/11/01 11:10:43;;;;;;;8.32;6.00;;;;;;;14.83;57.29;93815.31;4970545;28;20030;-78
2023/11/01 11:13:17;;;;;;;9.27;7.03;;;;;;;14.91;57.38;93839.25;4968960;28;20034;-78
2023/11/01 11:15:46;;;;;;;6.95;6.00;;;;;;;15.03;58.11;93841.13;4964652;28;20457;-78
2023/11/01 11:18:12;;;;;;;9.27;6.68;;;;;;;15.00;58.65;93821.19;4967126;28;20488;-78
2023/11/01 11:20:40;;;;;;;7.13;5.35;;;;;;;15.21;56.76;93839.72;4965161;28;20034;-79
2023/11/01 11:23:06;;;;;;;10.95;5.82;;;;;;;15.25;56.82;93837.94;4966309;28;20049;-79